Terminal Aerodrome Forecast
Issued by NWS

Home | Current Version | Previous Version | Graphics & Text | Print | Product List | Glossary On
Versions: 1 2 3 4 5 6 7 8 9 10 11 12 13 14 15
000
FTUS43 KGRB 310520
TAFRHI
TAF
KRHI 310520Z 3106/0106 09004KT P6SM VCSH SCT080
     FM311100 11007KT P6SM VCSH BKN080
     FM311500 12009KT P6SM -SHRA SCT040 BKN060
     FM311700 13009KT P6SM -SHRA SCT030 OVC045
     FM312300 17007KT 6SM -SHRA BKN025 OVC040
     FM010400 16006KT 5SM -SHRA BR BKN020 OVC035=

USA.gov is the U.S. government's official web portal to all federal, state and local government web resources and services.